Time;durP1;ratioP1;P1;durP2;ratioP2;P2;SDS_P1;SDS_P2;PMS_P1;PMS_P2;Temp;Humidity;BMP_temperature;BMP_pressure;BME280_temperature;BME280_humidity;BME280_pressure;Samples;Min_cycle;Max_cycle;Signal;HPM_P1;HPM_P2
2024/04/12 00:00:21;;;;;;;4.57;3.03;;;9.90;74.40;;;;;;6779070;26;20828;-65
2024/04/12 00:03:23;;;;;;;8.23;3.60;;;9.90;74.90;;;;;;6779204;26;20463;-66
2024/04/12 00:06:30;;;;;;;6.87;3.60;;;9.80;76.10;;;;;;6776030;26;20451;-65
2024/04/12 00:09:31;;;;;;;7.37;3.67;;;9.70;77.00;;;;;;6776020;26;20562;-65
2024/04/12 00:12:33;;;;;;;6.70;3.57;;;9.60;77.70;;;;;;6775910;26;20841;-65
2024/04/12 00:15:35;;;;;;;6.10;3.47;;;9.60;78.30;;;;;;6776046;26;21010;-64
2024/04/12 00:18:38;;;;;;;6.57;3.77;;;9.50;78.00;;;;;;6776331;26;20455;-65
2024/04/12 00:21:46;;;;;;;7.20;3.63;;;9.50;78.10;;;;;;6775731;26;20452;-64
2024/04/12 00:24:48;;;;;;;5.03;3.20;;;9.50;78.10;;;;;;6777507;26;20512;-64
2024/04/12 00:27:50;;;;;;;6.30;4.27;;;9.40;78.20;;;;;;6777212;26;20467;-65
2024/04/12 00:30:59;;;;;;;7.70;3.83;;;9.40;78.30;;;;;;6775876;26;20812;-64
2024/04/12 00:34:04;;;;;;;9.47;3.83;;;9.40;78.30;;;;;;6775698;26;20456;-64
2024/04/12 00:37:15;;;;;;;7.73;3.70;;;9.40;78.60;;;;;;6775950;26;20455;-65
2024/04/12 00:40:21;;;;;;;7.07;4.13;;;9.30;78.80;;;;;;6774625;26;20444;-65
2024/04/12 00:43:27;;;;;;;7.13;3.60;;;9.30;79.00;;;;;;6776354;26;20566;-63
2024/04/12 00:46:29;;;;;;;4.97;3.37;;;9.30;78.90;;;;;;6778620;26;20540;-65
2024/04/12 00:49:31;;;;;;;7.03;3.83;;;9.20;78.50;;;;;;6778427;26;20488;-65
2024/04/12 00:52:35;;;;;;;7.10;4.13;;;9.20;78.60;;;;;;6777497;26;20533;-64
2024/04/12 00:55:41;;;;;;;6.53;3.80;;;9.20;78.90;;;;;;6777208;26;20538;-64
2024/04/12 00:58:47;;;;;;;4.80;4.23;;;9.10;79.30;;;;;;6777260;26;20452;-64
2024/04/12 01:01:50;;;;;;;7.50;3.60;;;9.20;79.10;;;;;;6777460;26;20463;-64
2024/04/12 01:04:53;;;;;;;5.80;3.40;;;9.30;78.80;;;;;;6781737;26;20460;-64
2024/04/12 01:07:55;;;;;;;5.90;3.57;;;9.30;78.90;;;;;;6782151;26;20459;-65
2024/04/12 01:10:59;;;;;;;10.30;3.60;;;9.20;79.30;;;;;;6777129;26;20950;-64
2024/04/12 01:14:01;;;;;;;7.80;4.10;;;9.20;79.60;;;;;;6774804;26;20460;-64
2024/04/12 01:17:03;;;;;;;5.70;3.80;;;9.20;79.60;;;;;;6774889;26;20507;-64
2024/04/12 01:20:06;;;;;;;6.70;3.80;;;9.30;79.20;;;;;;6774514;26;20503;-63
2024/04/12 01:23:10;;;;;;;5.90;3.20;;;9.30;78.60;;;;;;6774260;26;20455;-65
2024/04/12 01:26:13;;;;;;;8.43;4.10;;;9.30;77.70;;;;;;6773993;26;20529;-64
2024/04/12 01:29:16;;;;;;;7.60;3.40;;;9.30;77.10;;;;;;6773705;26;20459;-64
2024/04/12 01:32:18;;;;;;;7.50;4.03;;;9.30;76.50;;;;;;6773883;26;20542;-65
2024/04/12 01:35:24;;;;;;;5.43;3.10;;;9.30;76.10;;;;;;6773850;26;20571;-64
2024/04/12 01:38:31;;;;;;;6.00;3.60;;;9.30;75.80;;;;;;6773978;26;20444;-63
2024/04/12 01:41:32;;;;;;;8.63;3.30;;;9.20;75.50;;;;;;6773919;26;20527;-65
2024/04/12 01:44:37;;;;;;;6.07;3.80;;;9.20;75.30;;;;;;6773378;26;20451;-66
2024/04/12 01:47:45;;;;;;;5.70;3.67;;;9.30;75.20;;;;;;6773393;26;20558;-64
2024/04/12 01:50:51;;;;;;;8.83;3.37;;;9.30;75.10;;;;;;6774349;26;20506;-63
2024/04/12 01:53:57;;;;;;;6.27;3.27;;;9.20;74.90;;;;;;6778092;26;20922;-63
2024/04/12 01:57:03;;;;;;;5.30;3.63;;;9.20;75.00;;;;;;6777908;26;20463;-64
2024/04/12 02:00:05;;;;;;;3.90;3.47;;;9.20;74.80;;;;;;6778174;26;20452;-64
2024/04/12 02:03:10;;;;;;;8.50;3.27;;;9.20;74.90;;;;;;6777551;26;20451;-63
2024/04/12 02:06:15;;;;;;;6.77;3.67;;;9.10;75.10;;;;;;6778446;26;20459;-64
2024/04/12 02:09:19;;;;;;;5.73;4.00;;;9.00;75.50;;;;;;6781180;26;20451;-65
2024/04/12 02:12:21;;;;;;;6.90;3.80;;;8.90;76.60;;;;;;6785559;26;20463;-63
2024/04/12 02:15:25;;;;;;;6.73;3.97;;;8.80;77.20;;;;;;6787249;26;20511;-63
2024/04/12 02:18:32;;;;;;;4.30;3.77;;;8.70;77.90;;;;;;6788806;26;20834;-64
2024/04/12 02:21:38;;;;;;;8.27;4.23;;;8.60;78.50;;;;;;6788704;26;20527;-64
2024/04/12 02:24:40;;;;;;;7.57;3.77;;;8.50;79.10;;;;;;6779809;26;20994;-65
2024/04/12 02:27:49;;;;;;;9.73;3.67;;;8.40;79.40;;;;;;6780601;26;20558;-64
2024/04/12 02:30:55;;;;;;;7.63;3.93;;;8.30;79.50;;;;;;6782417;26;20519;-64
2024/04/12 02:33:59;;;;;;;8.33;4.07;;;8.30;79.60;;;;;;6777489;26;20825;-63
2024/04/12 02:37:01;;;;;;;7.03;4.50;;;8.20;79.60;;;;;;6777439;26;20525;-63
2024/04/12 02:40:06;;;;;;;6.93;3.80;;;8.20;79.90;;;;;;6777797;26;20554;-63
2024/04/12 02:43:15;;;;;;;7.43;3.83;;;8.20;79.80;;;;;;6776945;26;20448;-64
2024/04/12 02:46:25;;;;;;;6.07;3.70;;;8.20;79.80;;;;;;6777481;26;20546;-66
2024/04/12 02:49:27;;;;;;;8.53;5.33;;;8.20;79.80;;;;;;6775285;26;20777;-65
2024/04/12 02:52:28;;;;;;;6.20;3.70;;;8.20;79.90;;;;;;6776408;26;20466;-64
2024/04/12 02:55:35;;;;;;;6.20;4.10;;;8.10;80.20;;;;;;6776653;26;20508;-64
2024/04/12 02:58:42;;;;;;;5.50;3.90;;;8.10;80.50;;;;;;6776580;26;20463;-64
2024/04/12 03:01:44;;;;;;;4.77;4.17;;;8.10;81.00;;;;;;6776777;26;20467;-63
2024/04/12 03:04:47;;;;;;;11.47;4.27;;;8.00;81.00;;;;;;6775931;26;20460;-64
2024/04/12 03:07:52;;;;;;;6.47;4.40;;;8.10;81.20;;;;;;6774814;26;20987;-64
2024/04/12 03:10:58;;;;;;;5.83;4.17;;;8.00;81.30;;;;;;6776802;26;20463;-64
2024/04/12 03:14:12;;;;;;;11.57;4.27;;;8.00;81.70;;;;;;6777103;26;20819;-65
2024/04/12 03:17:14;;;;;;;5.60;4.40;;;8.00;81.80;;;;;;6775137;26;20922;-65
2024/04/12 03:20:18;;;;;;;5.50;4.30;;;8.10;81.50;;;;;;6776770;26;20554;-64
2024/04/12 03:23:20;;;;;;;5.80;4.37;;;8.20;81.30;;;;;;6776864;26;20491;-64
2024/04/12 03:26:22;;;;;;;4.47;3.60;;;8.20;81.30;;;;;;6776655;26;20506;-65
2024/04/12 03:29:24;;;;;;;12.90;4.67;;;8.20;81.30;;;;;;6777458;26;20492;-63
2024/04/12 03:32:32;;;;;;;6.40;4.93;;;8.20;81.40;;;;;;6777363;26;20564;-64
2024/04/12 03:35:34;;;;;;;7.97;4.63;;;8.30;81.10;;;;;;6777935;26;20448;-63
2024/04/12 03:38:36;;;;;;;5.80;4.63;;;8.30;80.90;;;;;;6777529;26;20459;-64
2024/04/12 03:41:39;;;;;;;12.77;4.87;;;8.30;80.90;;;;;;6777195;26;20455;-64
2024/04/12 03:44:42;;;;;;;7.90;4.90;;;8.30;81.00;;;;;;6778294;26;20562;-65
2024/04/12 03:47:45;;;;;;;9.50;4.90;;;8.20;81.30;;;;;;6780078;26;20537;-65
2024/04/12 03:50:59;;;;;;;9.23;4.50;;;8.20;81.60;;;;;;6783748;26;20447;-64
2024/04/12 03:54:10;;;;;;;6.03;4.47;;;8.10;82.10;;;;;;6784895;26;20519;-64
2024/04/12 03:57:13;;;;;;;6.47;4.80;;;8.00;82.50;;;;;;6786192;26;20471;-64
2024/04/12 04:00:16;;;;;;;11.63;4.90;;;8.00;82.60;;;;;;6788493;26;20443;-64
2024/04/12 04:03:31;;;;;;;5.90;4.93;;;8.00;82.50;;;;;;6783624;26;20941;-64
2024/04/12 04:06:36;;;;;;;8.77;5.80;;;8.00;82.70;;;;;;6778562;26;20501;-64
2024/04/12 04:09:38;;;;;;;10.03;5.80;;;8.00;82.70;;;;;;6777989;26;20507;-63
2024/04/12 04:12:49;;;;;;;7.07;5.27;;;8.00;82.60;;;;;;6775888;26;20503;-64
2024/04/12 04:15:55;;;;;;;8.10;5.63;;;8.00;82.50;;;;;;6776779;26;20451;-64
2024/04/12 04:18:57;;;;;;;12.00;5.87;;;8.00;82.50;;;;;;6774586;26;20512;-65
2024/04/12 04:22:04;;;;;;;8.70;6.60;;;8.00;82.60;;;;;;6776279;26;20452;-63
2024/04/12 04:25:10;;;;;;;7.40;6.50;;;8.00;82.50;;;;;;6774591;26;20558;-64
2024/04/12 04:28:12;;;;;;;13.97;6.93;;;8.00;82.30;;;;;;6775322;26;20456;-65
2024/04/12 04:31:14;;;;;;;14.73;6.90;;;8.00;82.20;;;;;;6775079;26;20459;-65
2024/04/12 04:34:22;;;;;;;9.03;5.83;;;7.90;82.20;;;;;;6775670;26;20986;-66
2024/04/12 04:37:27;;;;;;;9.43;6.00;;;7.90;82.30;;;;;;6774641;26;20531;-63
2024/04/12 04:40:35;;;;;;;6.10;5.50;;;7.80;82.30;;;;;;6775484;26;20452;-64
2024/04/12 04:43:38;;;;;;;8.23;5.80;;;7.80;82.70;;;;;;6774243;26;20562;-64
2024/04/12 04:46:41;;;;;;;10.97;6.53;;;7.70;83.00;;;;;;6773397;26;20781;-63
2024/04/12 04:49:43;;;;;;;6.50;5.63;;;7.70;83.10;;;;;;6774501;26;20449;-65
2024/04/12 04:52:46;;;;;;;11.70;6.03;;;7.70;83.20;;;;;;6776124;26;20451;-64
2024/04/12 04:55:49;;;;;;;6.60;5.90;;;7.70;83.20;;;;;;6774812;26;20961;-64
2024/04/12 04:58:53;;;;;;;9.17;6.00;;;7.70;83.00;;;;;;6778439;26;20554;-64
2024/04/12 05:01:56;;;;;;;13.60;6.00;;;7.70;83.00;;;;;;6780891;26;20452;-64
2024/04/12 05:04:58;;;;;;;13.13;6.93;;;7.80;82.90;;;;;;6774990;26;20861;-64
2024/04/12 05:08:02;;;;;;;13.93;7.00;;;7.80;82.90;;;;;;6774682;26;20481;-64
2024/04/12 05:11:06;;;;;;;12.63;6.77;;;7.80;82.70;;;;;;6774738;26;20493;-64
2024/04/12 05:14:14;;;;;;;10.10;6.67;;;7.80;82.70;;;;;;6775604;26;20447;-65
2024/04/12 05:17:16;;;;;;;9.97;6.30;;;7.90;82.60;;;;;;6775729;26;20463;-65
2024/04/12 05:20:20;;;;;;;13.57;6.40;;;7.90;82.30;;;;;;6777474;26;20556;-63
2024/04/12 05:23:23;;;;;;;9.50;6.40;;;7.90;82.00;;;;;;6777745;26;20559;-64
2024/04/12 05:26:28;;;;;;;10.33;7.67;;;8.00;82.10;;;;;;6776952;26;20467;-64
2024/04/12 05:29:30;;;;;;;9.70;6.80;;;8.00;82.00;;;;;;6777133;26;20543;-64
2024/04/12 05:32:32;;;;;;;10.73;7.07;;;8.10;81.80;;;;;;6775649;26;20883;-63
2024/04/12 05:35:35;;;;;;;10.07;6.40;;;8.10;82.00;;;;;;6777614;26;20521;-64
2024/04/12 05:38:37;;;;;;;16.37;7.77;;;8.20;81.80;;;;;;6777214;26;20499;-63
2024/04/12 05:41:40;;;;;;;12.43;7.10;;;8.30;81.60;;;;;;6777129;26;20507;-65
2024/04/12 05:44:45;;;;;;;9.80;6.90;;;8.50;81.80;;;;;;6778059;26;20444;-65
2024/04/12 05:47:54;;;;;;;13.57;7.47;;;8.60;82.10;;;;;;6778069;26;20500;-65
2024/04/12 05:50:57;;;;;;;6.83;5.80;;;8.80;81.80;;;;;;6777089;26;20506;-64
2024/04/12 05:54:10;;;;;;;10.17;6.43;;;9.00;81.60;;;;;;6777508;26;20501;-65
2024/04/12 05:57:12;;;;;;;10.47;6.67;;;9.30;80.70;;;;;;6777929;26;20582;-65
2024/04/12 06:00:14;;;;;;;10.20;6.00;;;9.50;79.40;;;;;;6778168;26;20455;-65
2024/04/12 06:03:17;;;;;;;12.53;7.07;;;9.70;77.90;;;;;;6778255;26;20835;-65
2024/04/12 06:06:21;;;;;;;12.33;6.17;;;9.90;77.60;;;;;;6779199;26;20491;-65
2024/04/12 06:09:23;;;;;;;9.23;6.17;;;10.10;77.30;;;;;;6779205;26;20819;-65
2024/04/12 06:12:26;;;;;;;11.40;6.30;;;10.30;76.50;;;;;;6780406;26;20499;-64
2024/04/12 06:15:36;;;;;;;9.57;5.93;;;10.40;75.70;;;;;;6779250;26;20511;-64
2024/04/12 06:18:38;;;;;;;9.90;6.47;;;10.60;75.00;;;;;;6779639;26;20539;-65
2024/04/12 06:21:45;;;;;;;9.13;6.90;;;10.70;74.60;;;;;;6781794;26;20943;-65
2024/04/12 06:24:48;;;;;;;14.70;7.33;;;10.70;75.00;;;;;;6781383;26;20919;-65
2024/04/12 06:27:52;;;;;;;11.70;7.63;;;10.90;75.00;;;;;;6785038;26;20464;-64
2024/04/12 06:30:59;;;;;;;9.03;7.17;;;11.00;74.90;;;;;;6779500;26;20498;-64
2024/04/12 06:34:04;;;;;;;12.00;9.00;;;11.10;74.40;;;;;;6780645;26;20455;-65
2024/04/12 06:37:07;;;;;;;16.10;8.50;;;11.20;74.20;;;;;;6777551;26;20525;-64
2024/04/12 06:40:09;;;;;;;10.97;7.47;;;11.30;73.80;;;;;;6777555;26;20451;-64
2024/04/12 06:43:11;;;;;;;11.43;7.27;;;11.40;73.00;;;;;;6777024;26;20455;-64
2024/04/12 06:46:18;;;;;;;10.43;7.70;;;11.60;72.30;;;;;;6777624;26;20459;-65
2024/04/12 06:49:27;;;;;;;12.97;7.87;;;11.70;72.00;;;;;;6775341;26;20443;-64
2024/04/12 06:52:34;;;;;;;9.93;7.67;;;11.80;71.50;;;;;;6776954;26;21038;-66
2024/04/12 06:55:45;;;;;;;11.10;8.53;;;11.90;71.10;;;;;;6775481;26;20587;-64
2024/04/12 06:58:51;;;;;;;12.50;7.23;;;12.00;70.30;;;;;;6777652;26;20811;-64
2024/04/12 07:01:54;;;;;;;11.43;8.27;;;12.20;69.70;;;;;;6777216;26;20527;-64
2024/04/12 07:04:57;;;;;;;13.90;7.77;;;12.30;69.60;;;;;;6774670;26;20511;-64
2024/04/12 07:08:05;;;;;;;13.00;7.37;;;12.50;69.20;;;;;;6776175;26;20864;-64
2024/04/12 07:11:07;;;;;;;11.90;7.80;;;12.60;68.90;;;;;;6776308;26;20496;-64
2024/04/12 07:14:09;;;;;;;12.00;8.20;;;12.70;68.80;;;;;;6775911;26;20439;-63
2024/04/12 07:17:21;;;;;;;10.43;7.77;;;12.90;67.80;;;;;;6775735;26;20459;-64
2024/04/12 07:20:27;;;;;;;10.00;8.40;;;12.90;68.00;;;;;;6775435;26;20542;-63
2024/04/12 07:23:31;;;;;;;13.63;9.53;;;13.00;68.20;;;;;;6774910;26;20504;-64
2024/04/12 07:26:36;;;;;;;10.40;7.43;;;13.20;68.10;;;;;;6775632;26;20930;-65
2024/04/12 07:29:42;;;;;;;10.93;8.20;;;13.40;66.90;;;;;;6776807;26;20467;-65
2024/04/12 07:32:44;;;;;;;9.97;6.90;;;13.50;66.10;;;;;;6780787;26;20512;-66
2024/04/12 07:35:48;;;;;;;9.70;7.60;;;13.60;65.60;;;;;;6775207;26;20838;-65
2024/04/12 07:38:50;;;;;;;15.87;7.97;;;13.70;64.80;;;;;;6775766;26;20451;-65
2024/04/12 07:41:53;;;;;;;11.20;6.57;;;13.80;63.70;;;;;;6773418;26;20486;-66
2024/04/12 07:44:59;;;;;;;11.93;7.30;;;14.00;63.90;;;;;;6774544;26;20603;-64
2024/04/12 07:51:24;;;;;;;11.43;7.30;;;14.30;62.80;;;;;;6772994;26;20555;-64
2024/04/12 07:54:28;;;;;;;9.63;7.27;;;14.40;63.00;;;;;;6772657;26;20475;-65
2024/04/12 07:57:29;;;;;;;12.80;8.03;;;14.60;62.40;;;;;;6774947;26;20519;-65
2024/04/12 08:00:45;;;;;;;12.37;7.60;;;14.80;61.70;;;;;;6774697;26;20518;-65
2024/04/12 08:03:56;;;;;;;10.50;8.50;;;14.90;61.40;;;;;;6774352;26;20549;-63
2024/04/12 08:06:59;;;;;;;11.53;7.83;;;15.00;61.60;;;;;;6775033;26;20444;-65
2024/04/12 08:10:25;;;;;;;11.70;7.70;;;15.10;61.20;;;;;;6775033;26;20747;-65
2024/04/12 08:13:28;;;;;;;10.43;7.10;;;15.20;60.70;;;;;;6780519;26;20463;-65
2024/04/12 08:16:35;;;;;;;8.20;6.50;;;15.30;59.80;;;;;;6783101;26;20514;-66
2024/04/12 08:19:45;;;;;;;16.20;6.07;;;15.50;59.30;;;;;;6779107;26;20507;-65
2024/04/12 08:22:48;;;;;;;7.80;6.10;;;15.60;58.80;;;;;;6774692;26;20566;-65
2024/04/12 08:25:49;;;;;;;10.10;6.03;;;15.80;58.90;;;;;;6773576;26;20467;-66
2024/04/12 08:28:51;;;;;;;7.63;5.27;;;16.00;58.50;;;;;;6773016;26;20500;-67
2024/04/12 08:32:04;;;;;;;10.63;6.17;;;16.20;59.00;;;;;;6772677;26;20503;-66
2024/04/12 08:35:06;;;;;;;5.50;5.00;;;16.40;59.40;;;;;;6772711;26;20531;-66
2024/04/12 08:38:12;;;;;;;10.10;5.50;;;16.30;59.90;;;;;;6773822;26;20541;-66
2024/04/12 08:41:14;;;;;;;7.80;5.10;;;16.30;60.90;;;;;;6773860;26;20908;-66
2024/04/12 08:44:23;;;;;;;8.97;5.30;;;16.30;61.10;;;;;;6773943;26;20797;-66
2024/04/12 08:50:31;;;;;;;9.30;6.43;;;16.40;61.30;;;;;;6780892;26;20459;-66
2024/04/12 08:53:36;;;;;;;9.40;5.83;;;16.60;61.70;;;;;;6777307;26;20499;-65
2024/04/12 08:56:39;;;;;;;9.27;6.23;;;16.80;61.90;;;;;;6773585;26;20520;-65
2024/04/12 08:59:46;;;;;;;12.83;6.30;;;17.00;60.60;;;;;;6772929;26;20987;-66
2024/04/12 09:02:50;;;;;;;11.57;5.93;;;17.10;60.60;;;;;;6742692;26;20463;-65
2024/04/12 09:05:53;;;;;;;6.40;5.30;;;17.40;60.10;;;;;;6773983;26;20504;-65
2024/04/12 09:08:56;;;;;;;7.93;5.40;;;17.40;60.00;;;;;;6773606;26;20515;-64
2024/04/12 09:12:01;;;;;;;6.03;5.10;;;17.60;60.10;;;;;;6773326;26;20447;-65
2024/04/12 09:15:05;;;;;;;8.93;4.97;;;17.70;59.40;;;;;;6773250;26;20444;-64
2024/04/12 09:18:15;;;;;;;8.90;5.73;;;17.90;59.60;;;;;;6773154;26;20447;-64
2024/04/12 09:21:29;;;;;;;10.60;5.10;;;17.90;59.50;;;;;;6772966;26;20468;-66
2024/04/12 09:24:31;;;;;;;8.03;5.10;;;18.00;59.60;;;;;;6774102;26;20487;-65
2024/04/12 09:27:43;;;;;;;9.23;4.37;;;18.20;59.70;;;;;;6773790;26;20444;-65
2024/04/12 09:37:29;;;;;;;6.67;4.60;;;18.70;59.10;;;;;;6773484;26;20459;-64
2024/04/12 09:40:34;;;;;;;4.63;3.60;;;18.70;59.30;;;;;;6772343;26;20558;-66
2024/04/12 09:43:46;;;;;;;4.80;3.63;;;18.80;59.60;;;;;;6772458;26;20451;-65
2024/04/12 10:37:23;;;;;;;4.20;3.80;;;18.80;59.40;;;;;;6772150;26;20448;-65
2024/04/12 10:37:30;;;;;;;5.60;2.33;;;20.30;58.40;;;;;;6775874;26;20230;-66
2024/04/12 10:40:32;;;;;;;2.43;2.23;;;20.50;57.50;;;;;;6776287;26;20218;-65
2024/04/12 10:43:35;;;;;;;3.43;2.60;;;20.40;57.80;;;;;;6775606;26;20318;-67
2024/04/12 10:46:37;;;;;;;2.43;2.03;;;20.20;59.20;;;;;;6775444;26;20238;-67
2024/04/12 10:49:43;;;;;;;3.23;2.30;;;20.00;59.20;;;;;;6775009;26;20222;-67
2024/04/12 10:52:47;;;;;;;3.93;1.90;;;19.90;59.60;;;;;;6774882;26;20230;-67
2024/04/12 10:55:52;;;;;;;5.23;2.10;;;20.00;59.90;;;;;;6773002;26;20345;-67
2024/04/12 10:58:56;;;;;;;3.90;2.23;;;20.10;59.30;;;;;;6774936;26;20283;-65
2024/04/12 11:01:59;;;;;;;4.30;1.93;;;20.10;58.60;;;;;;6776082;26;20564;-66
2024/04/12 11:05:38;;;;;;;2.23;2.00;;;20.10;59.20;;;;;;6775218;26;20312;-66
2024/04/12 11:08:33;;;;;;;2.90;2.10;;;20.10;60.20;;;;;;6774562;26;20521;-66
2024/04/12 11:11:43;;;;;;;3.00;1.90;;;19.90;61.10;;;;;;6774141;26;20233;-65
2024/04/12 11:14:50;;;;;;;2.50;2.10;;;19.80;61.20;;;;;;6774917;26;20261;-65
2024/04/12 11:31:19;;;;;;;2.93;1.90;;;19.20;62.40;;;;;;6773723;26;20307;-66
2024/04/12 11:34:25;;;;;;;3.27;1.73;;;19.40;62.20;;;;;;6775145;26;20238;-66
2024/04/12 11:37:40;;;;;;;2.90;1.53;;;19.50;61.60;;;;;;6783793;26;20234;-65
2024/04/12 11:40:46;;;;;;;1.40;1.30;;;19.60;60.70;;;;;;6772732;26;20273;-65
2024/04/12 11:43:48;;;;;;;2.13;1.70;;;19.50;61.30;;;;;;6774078;26;20222;-65
2024/04/12 11:46:54;;;;;;;2.67;1.50;;;19.50;62.00;;;;;;6773853;26;20261;-66
2024/04/12 11:49:57;;;;;;;1.47;1.30;;;19.50;61.70;;;;;;6773848;26;20716;-65
2024/04/12 11:53:01;;;;;;;1.47;1.37;;;19.50;61.80;;;;;;6773868;26;20314;-66
2024/04/12 11:56:03;;;;;;;1.53;1.43;;;19.50;62.30;;;;;;6774257;26;20690;-66
2024/04/12 11:59:09;;;;;;;2.43;1.47;;;19.50;61.70;;;;;;6774013;26;20214;-65
2024/04/12 12:02:14;;;;;;;2.50;1.60;;;19.60;62.00;;;;;;6774032;26;20423;-65
2024/04/12 12:05:16;;;;;;;1.47;1.37;;;19.70;61.00;;;;;;6773560;26;20260;-65
2024/04/12 12:08:32;;;;;;;1.70;1.40;;;19.70;61.20;;;;;;6773941;26;20222;-65
2024/04/12 12:11:34;;;;;;;1.40;1.30;;;19.80;61.00;;;;;;6773551;26;20262;-65
2024/04/12 12:14:37;;;;;;;2.57;1.70;;;19.80;61.50;;;;;;6773494;26;20357;-65
2024/04/12 12:17:39;;;;;;;2.30;1.60;;;19.90;61.70;;;;;;6772351;26;20264;-65
2024/04/12 12:20:46;;;;;;;2.83;1.33;;;20.00;60.60;;;;;;6774045;26;20230;-66
2024/04/12 12:23:47;;;;;;;1.57;1.47;;;20.30;59.50;;;;;;6774169;26;20230;-65
2024/04/12 12:26:49;;;;;;;1.50;1.40;;;20.50;59.30;;;;;;6773928;26;20296;-65
2024/04/12 12:29:53;;;;;;;2.57;1.40;;;20.70;58.50;;;;;;6773927;26;20361;-65
2024/04/12 12:32:56;;;;;;;1.67;1.57;;;20.80;58.10;;;;;;6774182;26;20690;-66
2024/04/12 12:35:58;;;;;;;2.03;1.83;;;20.80;58.90;;;;;;6772240;26;20340;-66
2024/04/12 12:39:00;;;;;;;1.93;1.33;;;20.90;58.50;;;;;;6774243;26;20260;-66
2024/04/12 12:42:06;;;;;;;1.63;1.53;;;21.20;58.60;;;;;;6771728;26;20253;-65
2024/04/12 12:45:11;;;;;;;1.70;1.60;;;21.10;57.80;;;;;;6773782;26;20234;-64
2024/04/12 12:48:21;;;;;;;2.40;1.70;;;21.10;58.60;;;;;;6773567;26;20523;-65
2024/04/12 12:51:26;;;;;;;1.70;1.60;;;21.10;58.10;;;;;;6773580;26;20234;-66
2024/04/12 12:54:29;;;;;;;1.77;1.63;;;21.20;57.70;;;;;;6774321;26;20278;-66
2024/04/12 12:57:38;;;;;;;3.97;1.80;;;21.50;57.00;;;;;;6775603;26;20234;-67
2024/04/12 13:00:44;;;;;;;1.57;1.47;;;21.70;55.70;;;;;;6774799;26;20230;-66
2024/04/12 13:03:46;;;;;;;1.70;1.60;;;21.90;55.40;;;;;;6774522;26;20222;-67
2024/04/12 13:06:49;;;;;;;2.50;1.50;;;22.10;54.80;;;;;;6775095;26;20278;-66
2024/04/12 13:09:55;;;;;;;4.23;1.40;;;22.20;54.00;;;;;;6777576;26;20270;-66
2024/04/12 13:12:57;;;;;;;3.57;1.80;;;21.80;55.20;;;;;;6773965;26;20230;-66
2024/04/12 13:15:59;;;;;;;1.80;1.70;;;22.10;54.90;;;;;;6773570;26;20222;-66
2024/04/12 13:19:07;;;;;;;1.90;1.70;;;22.20;54.50;;;;;;6773435;26;20230;-67
2024/04/12 13:22:13;;;;;;;1.80;1.63;;;22.00;54.50;;;;;;6773811;26;20226;-67
2024/04/12 13:25:15;;;;;;;2.17;1.63;;;21.90;55.20;;;;;;6773635;26;20256;-66
2024/04/12 13:28:17;;;;;;;2.40;1.80;;;21.90;55.30;;;;;;6772941;26;20277;-66
2024/04/12 13:31:25;;;;;;;1.80;1.57;;;21.90;55.40;;;;;;6773130;26;20530;-66
2024/04/12 13:34:27;;;;;;;1.97;1.80;;;22.00;55.20;;;;;;6772790;26;20234;-66
2024/04/12 13:37:29;;;;;;;4.53;2.33;;;22.10;55.30;;;;;;6772527;26;20234;-66
2024/04/12 13:40:31;;;;;;;3.17;1.97;;;22.10;55.60;;;;;;6773677;26;20670;-67
2024/04/12 13:43:33;;;;;;;6.40;1.93;;;22.50;54.80;;;;;;6773095;26;20278;-65
2024/04/12 13:53:18;;;;;;;1.80;1.70;;;22.60;53.70;;;;;;6776394;26;20599;-66
2024/04/12 13:56:27;;;;;;;4.50;2.07;;;22.80;54.70;;;;;;6777143;26;20246;-67
2024/04/12 13:59:33;;;;;;;2.03;1.93;;;23.00;53.30;;;;;;6776920;26;20308;-66
2024/04/12 14:02:36;;;;;;;3.83;2.10;;;23.00;53.40;;;;;;6776564;26;20226;-67
2024/04/12 14:05:38;;;;;;;2.03;1.90;;;23.10;52.80;;;;;;6776610;26;20612;-65
2024/04/12 14:08:40;;;;;;;2.20;2.00;;;23.00;53.00;;;;;;6777451;26;20318;-66
2024/04/12 14:11:43;;;;;;;2.50;2.30;;;23.10;52.70;;;;;;6777855;26;20226;-67
2024/04/12 14:14:45;;;;;;;2.93;1.80;;;23.10;53.40;;;;;;6777807;26;20273;-67
2024/04/12 14:17:51;;;;;;;2.23;1.90;;;23.10;53.10;;;;;;6778244;26;20222;-67
2024/04/12 14:20:53;;;;;;;2.03;1.80;;;22.80;53.20;;;;;;6779004;26;20597;-66
2024/04/12 14:24:00;;;;;;;3.73;2.07;;;22.50;53.70;;;;;;6777245;26;20755;-66
2024/04/12 14:27:03;;;;;;;1.93;1.83;;;22.50;53.90;;;;;;6776997;26;20598;-67
2024/04/12 14:30:06;;;;;;;1.90;1.80;;;22.30;54.60;;;;;;6776630;26;20574;-66
2024/04/12 14:33:08;;;;;;;2.90;2.20;;;22.10;54.90;;;;;;6776631;26;20218;-66
2024/04/12 14:36:10;;;;;;;2.80;2.20;;;22.10;54.90;;;;;;6774827;26;20226;-66
2024/04/12 14:39:15;;;;;;;2.33;2.17;;;22.30;55.30;;;;;;6776226;26;20225;-66
2024/04/12 14:42:20;;;;;;;2.77;2.07;;;22.30;54.80;;;;;;6776908;26;20263;-66
2024/04/12 14:45:23;;;;;;;2.30;2.10;;;22.60;55.00;;;;;;6776710;26;20230;-66
2024/04/12 14:48:26;;;;;;;2.50;2.30;;;22.80;54.20;;;;;;6777413;26;20622;-66
2024/04/12 14:51:27;;;;;;;2.60;2.40;;;22.70;53.60;;;;;;6782008;26;20230;-66
2024/04/12 14:54:32;;;;;;;2.83;2.57;;;22.70;54.50;;;;;;6789857;26;20383;-66
2024/04/12 14:57:34;;;;;;;3.47;2.47;;;22.90;54.70;;;;;;6791098;26;20253;-66
2024/04/12 15:00:36;;;;;;;2.47;2.20;;;23.20;53.10;;;;;;6797182;26;20248;-65
2024/04/12 15:53:18;;;;;;;2.30;2.10;;;22.90;53.80;;;;;;6774703;26;20256;-67
2024/04/12 16:12:54;;;;;;;2.30;2.10;;;22.40;54.60;;;;;;6774329;26;20226;-67
2024/04/12 16:15:56;;;;;;;4.37;2.80;;;22.30;55.30;;;;;;6775476;26;20230;-66
2024/04/12 16:18:58;;;;;;;4.10;2.40;;;22.10;55.20;;;;;;6774052;26;20234;-67
2024/04/12 16:22:03;;;;;;;3.97;3.03;;;21.90;55.90;;;;;;6775454;26;20237;-66
2024/04/12 16:25:05;;;;;;;2.53;2.30;;;21.80;56.20;;;;;;6773567;26;20223;-67
2024/04/12 16:28:07;;;;;;;2.73;2.47;;;21.70;56.20;;;;;;6781458;26;20252;-66
2024/04/12 16:31:12;;;;;;;4.37;2.20;;;21.70;57.20;;;;;;6773422;26;20227;-67
2024/04/12 16:34:15;;;;;;;3.97;2.43;;;21.80;56.40;;;;;;6775219;26;20226;-66
2024/04/12 16:37:17;;;;;;;3.33;2.47;;;21.80;56.10;;;;;;6775034;26;20238;-66
2024/04/12 16:40:19;;;;;;;2.30;2.10;;;21.80;56.80;;;;;;6775140;26;20229;-67
2024/04/12 16:43:23;;;;;;;2.47;2.30;;;21.90;56.00;;;;;;6774319;26;20257;-67
2024/04/12 16:46:25;;;;;;;3.40;2.90;;;21.80;56.50;;;;;;6779763;26;20265;-67
2024/04/12 16:49:27;;;;;;;3.03;2.60;;;21.70;56.10;;;;;;6775148;26;20256;-67
2024/04/12 16:52:29;;;;;;;2.77;2.57;;;21.50;56.20;;;;;;6774890;26;20226;-67
2024/04/12 16:55:31;;;;;;;3.10;2.50;;;21.20;57.10;;;;;;6774995;26;20230;-67
2024/04/12 16:58:33;;;;;;;4.10;2.73;;;21.10;57.70;;;;;;6772542;26;20319;-67
2024/04/12 17:01:34;;;;;;;2.90;2.50;;;21.10;58.10;;;;;;6772597;26;20229;-66
2024/04/12 17:04:36;;;;;;;5.60;3.03;;;21.50;57.20;;;;;;6774469;26;20237;-66
2024/04/12 17:07:38;;;;;;;8.40;3.00;;;21.80;56.50;;;;;;6779594;26;20717;-66
2024/04/12 17:10:43;;;;;;;3.20;2.63;;;21.70;57.00;;;;;;6740676;26;20669;-66
2024/04/12 17:13:46;;;;;;;2.67;2.47;;;21.60;57.20;;;;;;6773774;26;20669;-67
2024/04/12 17:16:49;;;;;;;4.03;3.63;;;21.50;57.30;;;;;;6773370;26;20237;-67
2024/04/12 17:19:51;;;;;;;2.60;2.40;;;21.50;57.40;;;;;;6773076;26;20234;-67
2024/04/12 17:22:52;;;;;;;2.97;2.73;;;21.50;57.40;;;;;;6772951;26;20237;-66
2024/04/12 17:25:55;;;;;;;5.33;2.17;;;21.40;57.50;;;;;;6773348;26;20315;-67
2024/04/12 17:28:57;;;;;;;3.13;2.80;;;21.20;58.10;;;;;;6773694;26;20286;-66
2024/04/12 17:31:59;;;;;;;3.10;2.90;;;21.10;58.50;;;;;;6774235;26;20234;-65
2024/04/12 17:35:05;;;;;;;4.23;2.63;;;20.90;58.80;;;;;;6772582;26;20233;-65
2024/04/12 17:38:07;;;;;;;3.00;2.27;;;20.80;59.20;;;;;;6771796;26;20257;-66
2024/04/12 17:41:09;;;;;;;5.30;2.70;;;20.70;59.50;;;;;;6772910;26;20248;-64
2024/04/12 17:44:11;;;;;;;6.70;2.60;;;20.60;59.80;;;;;;6773549;26;20533;-64
2024/04/12 17:47:13;;;;;;;6.67;3.03;;;20.50;60.00;;;;;;6773242;26;20248;-64
2024/04/12 17:50:16;;;;;;;7.57;3.90;;;20.20;60.50;;;;;;6773399;26;20603;-65
2024/04/12 17:53:18;;;;;;;5.13;3.00;;;20.00;61.00;;;;;;6774947;26;20277;-66
2024/04/12 17:56:24;;;;;;;6.17;3.10;;;19.90;61.50;;;;;;6775087;26;20616;-65
2024/04/12 17:59:27;;;;;;;5.93;3.00;;;19.70;62.40;;;;;;6774834;26;20234;-65
2024/04/12 18:02:29;;;;;;;8.23;3.10;;;19.50;63.70;;;;;;6776583;26;20253;-65
2024/04/12 18:05:31;;;;;;;7.60;3.70;;;19.20;65.40;;;;;;6776248;26;20242;-65
2024/04/12 18:08:33;;;;;;;11.27;3.30;;;19.00;65.10;;;;;;6774940;26;20560;-66
2024/04/12 18:11:36;;;;;;;6.23;2.57;;;18.90;65.30;;;;;;6773913;26;20564;-65
2024/04/12 18:14:39;;;;;;;3.00;2.80;;;18.70;66.40;;;;;;6775070;26;20447;-65
2024/04/12 18:17:41;;;;;;;7.30;2.63;;;18.60;66.60;;;;;;6775513;26;20562;-66
2024/04/12 18:20:43;;;;;;;13.40;3.50;;;18.50;66.80;;;;;;6776304;26;20448;-67
2024/04/12 18:23:45;;;;;;;7.13;2.80;;;18.30;67.60;;;;;;6776578;26;20455;-65
2024/04/12 18:26:48;;;;;;;4.10;2.30;;;18.20;67.90;;;;;;6773327;26;20507;-65